createdAt,value
2023-02-18T00:03:31.295Z,77.39
2023-02-18T00:08:33.438Z,77.35
2023-02-18T00:13:32.681Z,77.80
2023-02-18T00:18:33.838Z,79.06
2023-02-18T00:23:36.001Z,80.53
2023-02-18T00:28:35.136Z,81.49
2023-02-18T00:33:37.289Z,81.94
2023-02-18T00:38:36.421Z,81.22
2023-02-18T00:43:37.669Z,80.77
2023-02-18T00:48:38.835Z,80.46
2023-02-18T00:53:40.962Z,81.63
2023-02-18T00:58:41.164Z,81.01
2023-02-18T01:03:40.312Z,81.01
2023-02-18T01:08:41.491Z,80.40
2023-02-18T01:13:43.641Z,80.81
2023-02-18T01:18:43.759Z,81.20
2023-02-18T01:23:43.992Z,81.50
2023-02-18T01:28:44.155Z,82.97
2023-02-18T01:33:43.277Z,82.97
2023-02-18T01:38:44.640Z,83.53
2023-02-18T01:43:45.760Z,83.56
2023-02-18T01:48:46.928Z,84.12
2023-02-18T01:53:48.046Z,84.22
2023-02-18T01:58:49.168Z,82.92
2023-02-18T02:03:50.598Z,84.77
2023-02-18T02:08:51.824Z,80.66
2023-02-18T02:13:53.904Z,77.92
2023-02-18T02:18:53.011Z,77.26
2023-02-18T02:23:55.100Z,71.35
2023-02-18T02:28:53.228Z,69.24
2023-02-18T02:33:55.443Z,68.52
2023-02-18T02:38:56.554Z,67.40
2023-02-18T02:43:55.719Z,67.26
2023-02-18T02:48:56.837Z,67.29
2023-02-18T02:53:58.062Z,67.70
2023-02-18T02:58:59.217Z,67.80
2023-02-18T03:04:00.442Z,67.40
2023-02-18T03:09:01.563Z,68.04
2023-02-18T03:14:02.724Z,69.81
2023-02-18T03:19:03.822Z,72.20
2023-02-18T03:24:04.952Z,72.61
2023-02-18T03:29:07.215Z,73.54
2023-02-18T03:34:06.299Z,75.79
2023-02-18T03:39:08.445Z,78.36
2023-02-18T03:44:07.543Z,74.98
2023-02-18T03:49:09.661Z,71.80
2023-02-18T03:54:08.825Z,70.36
2023-02-18T03:59:10.941Z,72.82
2023-02-18T04:04:11.148Z,74.40
2023-02-18T04:09:10.246Z,73.71
2023-02-18T04:14:11.388Z,72.65
2023-02-18T04:19:12.563Z,73.10
2023-02-18T04:24:14.671Z,76.21
2023-02-18T04:29:13.795Z,78.36
2023-02-18T04:34:15.913Z,77.34
2023-02-18T04:39:16.032Z,72.14
2023-02-18T04:44:15.131Z,69.92
2023-02-18T04:49:16.267Z,70.77
2023-02-18T04:54:17.416Z,70.46
2023-02-18T04:59:18.646Z,69.95
2023-02-18T05:04:20.778Z,70.22
2023-02-18T05:09:20.982Z,71.80
2023-02-18T05:14:21.122Z,72.51
2023-02-18T05:19:20.370Z,72.41
2023-02-18T05:24:21.486Z,73.47
2023-02-18T05:29:22.640Z,74.12
2023-02-18T05:34:24.788Z,74.32
2023-02-18T05:39:25.979Z,74.36
2023-02-18T05:44:26.102Z,73.54
2023-02-18T05:49:25.210Z,72.58
2023-02-18T05:54:27.331Z,71.14
2023-02-18T05:59:27.445Z,70.84
2023-02-18T06:04:26.895Z,69.47
2023-02-18T06:09:29.019Z,68.92
2023-02-18T06:14:27.369Z,68.30
2023-02-18T06:19:29.529Z,68.41
2023-02-18T06:24:28.704Z,69.74
2023-02-18T06:29:29.854Z,70.29
2023-02-18T06:34:30.941Z,70.94
2023-02-18T06:39:32.048Z,71.79
2023-02-18T06:44:33.168Z,72.41
2023-02-18T06:49:34.347Z,71.66
2023-02-18T06:54:36.450Z,71.14
2023-02-18T06:59:35.575Z,70.39
2023-02-18T07:04:36.701Z,70.80
2023-02-18T07:09:37.846Z,70.87
2023-02-18T07:14:39.988Z,70.77
2023-02-18T07:19:40.110Z,70.26
2023-02-18T07:24:40.234Z,70.73
2023-02-18T07:29:39.362Z,69.68
2023-02-18T07:34:40.462Z,67.90
2023-02-18T07:39:41.557Z,67.60
2023-02-18T07:44:43.683Z,68.41
2023-02-18T07:49:42.805Z,69.37
2023-02-18T07:54:43.914Z,70.74
2023-02-18T07:59:47.077Z,69.38
2023-02-18T08:04:46.196Z,68.49
2023-02-18T08:09:47.302Z,68.16
2023-02-18T08:14:48.441Z,69.07
2023-02-18T08:19:49.851Z,69.38
2023-02-18T08:24:52.967Z,72.14
2023-02-18T08:29:52.241Z,72.34
2023-02-18T08:34:53.343Z,72.99
2023-02-18T08:39:55.442Z,74.19
2023-02-18T08:44:54.649Z,74.70
2023-02-18T08:49:56.792Z,72.86
2023-02-18T08:54:56.937Z,71.70
2023-02-18T09:00:00.019Z,70.43
2023-02-18T09:04:58.180Z,65.48
2023-02-18T09:09:57.319Z,63.04
2023-02-18T09:14:59.489Z,61.05
2023-02-18T09:19:58.624Z,60.18
2023-02-18T09:24:59.773Z,60.05
2023-02-18T09:30:00.934Z,58.85
2023-02-18T09:35:02.098Z,57.40
2023-02-18T09:40:03.207Z,56.44
2023-02-18T09:45:04.320Z,53.65
2023-02-18T09:50:05.399Z,54.00
2023-02-18T09:55:07.614Z,52.14
2023-02-18T10:00:05.742Z,52.74
2023-02-18T10:05:07.842Z,52.54
2023-02-18T10:10:06.954Z,53.34
2023-02-18T10:15:09.076Z,53.50
2023-02-18T10:20:08.595Z,53.02
2023-02-18T10:25:07.783Z,52.74
2023-02-18T10:30:09.920Z,53.25
2023-02-18T10:35:10.044Z,53.55
2023-02-18T10:40:10.164Z,53.42
2023-02-18T10:45:10.274Z,52.06
2023-02-18T10:50:09.395Z,52.19
2023-02-18T10:55:10.508Z,52.24
2023-02-18T11:00:11.666Z,51.51
2023-02-18T11:05:12.839Z,51.06
2023-02-18T11:10:14.014Z,50.78
2023-02-18T11:15:15.140Z,51.16
2023-02-18T11:20:18.349Z,49.77
2023-02-18T11:25:17.475Z,50.58
2023-02-18T11:30:18.679Z,50.58
2023-02-18T11:35:19.770Z,50.98
2023-02-18T11:40:21.866Z,49.85
2023-02-18T11:45:20.962Z,49.21
2023-02-18T11:50:22.065Z,48.96
2023-02-18T11:55:25.296Z,48.33
2023-02-18T12:00:24.401Z,49.46
2023-02-18T12:05:26.595Z,47.71
2023-02-18T12:10:25.744Z,47.00
2023-02-18T12:15:28.845Z,47.38
2023-02-18T12:20:27.022Z,46.26
2023-02-18T12:25:28.140Z,46.76
2023-02-18T12:30:29.421Z,46.66
2023-02-18T12:35:32.579Z,46.51
2023-02-18T12:40:32.713Z,46.89
2023-02-18T12:45:32.805Z,46.78
2023-02-18T12:50:32.897Z,51.31
2023-02-18T12:55:32.056Z,48.11
2023-02-18T13:00:33.274Z,46.86
2023-02-18T13:05:34.606Z,50.28
2023-02-18T13:10:36.768Z,51.99
2023-02-18T13:15:35.871Z,52.87
2023-02-18T13:20:36.965Z,52.72
2023-02-18T13:25:38.062Z,51.49
2023-02-18T13:30:41.279Z,51.29
2023-02-18T13:35:42.465Z,54.43
2023-02-18T13:40:41.571Z,54.41
2023-02-18T13:45:44.736Z,55.01
2023-02-18T13:50:44.922Z,55.91
2023-02-18T13:55:44.223Z,55.29
2023-02-18T14:00:47.654Z,58.06
2023-02-18T14:05:48.883Z,59.42
2023-02-18T14:10:48.154Z,59.48
2023-02-18T14:15:50.650Z,59.99
2023-02-18T14:20:50.952Z,59.25
2023-02-18T14:25:50.299Z,58.89
2023-02-18T14:30:51.558Z,59.73
2023-02-18T14:35:53.906Z,61.37
2023-02-18T14:40:54.054Z,63.45
2023-02-18T14:45:55.144Z,63.31
2023-02-18T14:50:56.614Z,63.81
2023-02-18T14:55:55.875Z,65.26
2023-02-18T15:01:02.344Z,64.86
2023-02-18T15:05:58.521Z,65.06
2023-02-18T15:10:58.634Z,65.29
2023-02-18T15:15:59.021Z,65.29
2023-02-18T15:20:59.296Z,66.24
2023-02-18T15:25:59.591Z,66.54
2023-02-18T15:30:57.878Z,66.10
2023-02-18T15:36:00.050Z,65.06
2023-02-18T15:41:00.209Z,66.00
2023-02-18T15:45:59.341Z,67.14
2023-02-18T15:51:08.158Z,67.45
2023-02-18T15:56:02.704Z,67.55
2023-02-18T16:01:03.210Z,68.52
2023-02-18T16:06:02.410Z,68.09
2023-02-18T16:11:04.745Z,68.96
2023-02-18T16:16:04.085Z,68.66
2023-02-18T16:21:06.270Z,69.17
2023-02-18T16:26:05.521Z,69.51
2023-02-18T16:31:07.985Z,70.15
2023-02-18T16:36:07.656Z,70.35
2023-02-18T16:41:07.163Z,71.33
2023-02-18T16:46:08.998Z,71.20
2023-02-18T16:51:09.430Z,71.67
2023-02-18T16:56:11.462Z,72.52
2023-02-18T17:01:08.893Z,72.82
2023-02-18T17:06:10.699Z,74.01
2023-02-18T17:11:10.175Z,74.32
2023-02-18T17:16:10.622Z,75.16
2023-02-18T17:21:10.249Z,75.37
2023-02-18T17:26:09.890Z,75.51
2023-02-18T17:31:10.446Z,75.16
2023-02-18T17:36:10.295Z,74.86
2023-02-18T17:41:11.087Z,75.81
2023-02-18T17:46:10.729Z,76.35
2023-02-18T17:51:11.040Z,76.97
2023-02-18T17:56:10.635Z,78.16
2023-02-18T18:01:10.268Z,79.02
2023-02-18T18:06:10.242Z,79.52
2023-02-18T18:11:09.961Z,80.07
2023-02-18T18:16:09.334Z,80.73
2023-02-18T18:21:11.118Z,81.38
2023-02-18T18:26:10.700Z,82.23
2023-02-18T18:31:10.591Z,82.64
2023-02-18T18:36:10.596Z,82.23
2023-02-18T18:41:11.498Z,82.43
2023-02-18T18:46:16.146Z,83.29
2023-02-18T18:51:12.681Z,83.19
2023-02-18T18:56:13.275Z,82.95
2023-02-18T19:01:12.817Z,82.98
2023-02-18T19:06:13.265Z,83.50
2023-02-18T19:11:12.742Z,83.44
2023-02-18T19:16:13.073Z,83.74
2023-02-18T19:21:12.584Z,84.91
2023-02-18T19:26:12.070Z,85.97
2023-02-18T19:31:11.806Z,86.28
2023-02-18T19:36:11.417Z,86.28
2023-02-18T19:41:17.016Z,85.93
2023-02-18T19:46:12.561Z,84.97
2023-02-18T19:51:13.194Z,84.87
2023-02-18T19:56:12.463Z,85.01
2023-02-18T20:01:13.947Z,85.22
2023-02-18T20:06:13.644Z,84.46
2023-02-18T20:11:13.122Z,84.80
2023-02-18T20:16:14.581Z,85.11
2023-02-18T20:21:14.111Z,84.80
2023-02-18T20:26:14.653Z,86.07
2023-02-18T20:31:14.415Z,86.11
2023-02-18T20:36:13.747Z,86.52
2023-02-18T20:41:15.107Z,86.18
2023-02-18T20:46:15.565Z,85.22
2023-02-18T20:51:17.991Z,85.56
2023-02-18T20:56:17.406Z,85.05
2023-02-18T21:01:18.920Z,85.56
2023-02-18T21:06:18.892Z,85.46
2023-02-18T21:11:18.380Z,86.42
2023-02-18T21:16:17.767Z,86.36
2023-02-18T21:21:18.973Z,85.95
2023-02-18T21:26:20.159Z,85.93
2023-02-18T21:31:22.438Z,88.43
2023-02-18T21:36:22.738Z,89.15
2023-02-18T21:41:22.077Z,87.96
2023-02-18T21:46:25.316Z,88.92
2023-02-18T21:51:25.436Z,88.96
2023-02-18T21:56:25.784Z,88.76
2023-02-18T22:01:26.498Z,89.11
2023-02-18T22:06:27.766Z,90.49
2023-02-18T22:11:24.895Z,90.94
2023-02-18T22:16:27.035Z,92.53
2023-02-18T22:21:27.192Z,92.99
2023-02-18T22:26:26.366Z,92.74
2023-02-18T22:31:27.964Z,91.81
2023-02-18T22:36:29.181Z,92.00
2023-02-18T22:41:30.497Z,94.62
2023-02-18T22:46:31.722Z,95.36
2023-02-18T22:51:32.924Z,93.81
2023-02-18T22:56:34.144Z,94.27
2023-02-18T23:01:35.314Z,95.36
2023-02-18T23:06:36.472Z,94.02
2023-02-18T23:11:37.699Z,92.88
2023-02-18T23:16:38.961Z,92.68
2023-02-18T23:21:40.479Z,95.77
2023-02-18T23:26:39.707Z,95.37
2023-02-18T23:31:41.065Z,94.15
2023-02-18T23:36:42.424Z,92.50
2023-02-18T23:41:43.652Z,90.75
2023-02-18T23:46:44.832Z,91.19
2023-02-18T23:51:46.103Z,91.81
2023-02-18T23:56:47.372Z,93.35
